Terminal Aerodrome Forecast
Issued by NWS King Salmon, AK

Home | Current Version | Previous Version | Text Only | Print | Product List | Glossary On
Versions: 1 2 3 4 5 6 7 8 9 10 11 12 13 14 15 16 17 18 19 20 21 22 23 24 25 26 27 28 29 30 31 32 33 34 35 36 37
000
FTAK31 PANC 191740
TAFAKN
TAF
PAKN 191740Z 1918/2018 07003KT 1/4SM FG BKN001 BKN060
      TEMPO 1918/1920 2SM BR SCT001 BKN060
     FM192000 VRB04KT P6SM FEW015 BKN060
      TEMPO 1920/1922 3SM BR BKN015
     FM200000 33005KT P6SM -SHRA SCT030 OVC050=

USA.gov is the U.S. government's official web portal to all federal, state and local government web resources and services.